createdAt,value
2022-10-13T00:01:46.518Z,7.87
2022-10-13T00:04:13.033Z,7.60
2022-10-13T00:06:39.465Z,7.70
2022-10-13T00:09:05.889Z,7.57
2022-10-13T00:11:32.395Z,9.23
2022-10-13T00:14:00.989Z,9.13
2022-10-13T00:16:29.945Z,10.80
2022-10-13T00:18:56.574Z,8.23
2022-10-13T00:21:24.200Z,8.43
2022-10-13T00:23:51.387Z,7.80
2022-10-13T00:26:19.845Z,8.90
2022-10-13T00:28:51.302Z,11.17
2022-10-13T00:31:18.944Z,8.30
2022-10-13T00:33:45.448Z,10.80
2022-10-13T00:36:12.662Z,12.60
2022-10-13T00:38:39.079Z,7.10
2022-10-13T00:41:06.224Z,7.17
2022-10-13T00:43:52.935Z,10.50
2022-10-13T00:46:22.143Z,10.43
2022-10-13T00:48:56.842Z,8.53
2022-10-13T00:51:25.716Z,10.37
2022-10-13T00:53:56.459Z,11.40
2022-10-13T00:56:23.846Z,9.03
2022-10-13T00:58:51.075Z,9.00
2022-10-13T01:01:18.141Z,7.77
2022-10-13T01:03:44.654Z,9.13
2022-10-13T01:06:12.690Z,9.90
2022-10-13T01:08:39.210Z,7.53
2022-10-13T01:11:08.939Z,9.43
2022-10-13T01:13:55.534Z,7.43
2022-10-13T01:16:29.832Z,10.93
2022-10-13T01:19:14.561Z,6.97
2022-10-13T01:21:51.100Z,12.03
2022-10-13T01:24:35.542Z,9.37
2022-10-13T01:27:16.659Z,12.40
2022-10-13T01:30:04.639Z,11.90
2022-10-13T01:32:51.653Z,8.30
2022-10-13T01:35:22.093Z,9.97
2022-10-13T01:37:51.503Z,9.73
2022-10-13T01:40:23.948Z,11.53
2022-10-13T01:43:04.227Z,9.03
2022-10-13T01:45:36.055Z,13.70
2022-10-13T01:48:03.769Z,10.97
2022-10-13T01:50:30.943Z,10.00
2022-10-13T01:53:00.058Z,11.10
2022-10-13T01:55:26.512Z,11.10
2022-10-13T01:57:52.942Z,9.23
2022-10-13T02:00:21.002Z,12.83
2022-10-13T02:02:53.364Z,10.40
2022-10-13T02:05:30.103Z,14.10
2022-10-13T02:08:02.132Z,11.43
2022-10-13T02:10:34.251Z,11.27
2022-10-13T02:13:02.492Z,9.60
2022-10-13T02:15:31.153Z,10.23
2022-10-13T02:18:00.983Z,10.60
2022-10-13T02:20:27.646Z,7.33
2022-10-13T02:23:00.451Z,8.37
2022-10-13T02:25:27.596Z,8.67
2022-10-13T02:27:54.230Z,9.90
2022-10-13T02:30:22.688Z,10.90
2022-10-13T02:32:49.247Z,11.50
2022-10-13T02:35:15.631Z,9.67
2022-10-13T02:37:42.178Z,9.93
2022-10-13T02:40:10.084Z,11.10
2022-10-13T02:42:36.529Z,7.83
2022-10-13T02:45:03.698Z,10.17
2022-10-13T02:47:30.103Z,7.73
2022-10-13T02:49:56.545Z,10.47
2022-10-13T02:52:23.064Z,11.90
2022-10-13T02:54:49.475Z,9.13
2022-10-13T02:57:16.014Z,8.70
2022-10-13T02:59:43.226Z,14.50
2022-10-13T03:02:09.758Z,11.80
2022-10-13T03:04:36.162Z,12.30
2022-10-13T03:07:02.784Z,10.53
2022-10-13T03:09:29.206Z,18.27
2022-10-13T03:11:55.678Z,7.90
2022-10-13T03:14:22.159Z,7.80
2022-10-13T03:16:48.600Z,11.20
2022-10-13T03:19:15.505Z,11.47
2022-10-13T03:21:42.102Z,9.93
2022-10-13T03:24:08.578Z,12.23
2022-10-13T03:26:35.182Z,10.70
2022-10-13T03:29:01.684Z,7.90
2022-10-13T03:31:28.480Z,7.97
2022-10-13T03:34:01.690Z,11.10
2022-10-13T03:36:28.224Z,8.87
2022-10-13T03:38:54.654Z,9.70
2022-10-13T03:41:21.287Z,8.00
2022-10-13T03:43:49.460Z,7.77
2022-10-13T03:46:17.445Z,10.93
2022-10-13T03:48:45.324Z,13.33
2022-10-13T03:51:13.272Z,12.47
2022-10-13T03:53:45.321Z,8.60
2022-10-13T03:56:14.350Z,10.40
2022-10-13T03:58:53.529Z,10.77
2022-10-13T04:01:20.561Z,8.00
2022-10-13T04:03:48.223Z,9.53
2022-10-13T04:06:14.677Z,15.30
2022-10-13T04:08:41.180Z,9.53
2022-10-13T04:11:09.265Z,9.67
2022-10-13T04:13:38.137Z,8.10
2022-10-13T04:16:05.446Z,8.00
2022-10-13T04:18:32.386Z,10.57
2022-10-13T04:20:59.123Z,11.17
2022-10-13T04:23:25.557Z,10.23
2022-10-13T04:25:52.026Z,7.27
2022-10-13T04:28:18.560Z,11.30
2022-10-13T04:30:49.251Z,10.83
2022-10-13T04:33:16.047Z,7.67
2022-10-13T04:35:42.461Z,8.23
2022-10-13T04:38:08.991Z,8.67
2022-10-13T04:40:35.872Z,9.48
2022-10-13T04:43:02.414Z,10.13
2022-10-13T04:45:28.992Z,7.63
2022-10-13T04:47:55.429Z,8.13
2022-10-13T04:50:22.979Z,10.07
2022-10-13T04:52:58.428Z,11.97
2022-10-13T04:55:24.970Z,9.30
2022-10-13T04:57:51.450Z,10.57
2022-10-13T05:00:17.950Z,7.30
2022-10-13T05:02:44.428Z,8.07
2022-10-13T05:05:10.816Z,12.50
2022-10-13T05:07:37.300Z,7.93
2022-10-13T05:10:04.143Z,11.60
2022-10-13T05:12:30.695Z,9.17
2022-10-13T05:14:57.202Z,8.80
2022-10-13T05:17:23.631Z,8.93
2022-10-13T05:19:50.118Z,9.17
2022-10-13T05:22:16.567Z,11.93
2022-10-13T05:24:43.016Z,9.43
2022-10-13T05:27:10.538Z,8.67
2022-10-13T05:29:37.443Z,9.53
2022-10-13T05:32:04.113Z,8.73
2022-10-13T05:34:30.575Z,9.03
2022-10-13T05:36:57.026Z,8.30
2022-10-13T05:39:23.520Z,10.70
2022-10-13T05:41:50.008Z,10.63
2022-10-13T05:44:20.639Z,11.30
2022-10-13T05:46:53.190Z,10.50
2022-10-13T05:49:19.659Z,10.43
2022-10-13T05:51:47.662Z,8.80
2022-10-13T05:54:17.179Z,10.00
2022-10-13T05:56:46.655Z,9.47
2022-10-13T05:59:14.604Z,10.00
2022-10-13T06:01:45.708Z,11.53
2022-10-13T06:04:15.380Z,11.03
2022-10-13T06:06:43.800Z,7.63
2022-10-13T06:09:10.465Z,11.03
2022-10-13T06:11:36.991Z,10.33
2022-10-13T06:14:03.516Z,12.20
2022-10-13T06:16:29.927Z,12.70
2022-10-13T06:18:57.568Z,8.13
2022-10-13T06:21:24.343Z,11.10
2022-10-13T06:23:50.881Z,8.50
2022-10-13T06:26:19.985Z,12.77
2022-10-13T06:28:50.465Z,10.73
2022-10-13T06:31:18.898Z,9.67
2022-10-13T06:33:45.402Z,9.90
2022-10-13T06:36:11.844Z,8.37
2022-10-13T06:38:38.271Z,9.37
2022-10-13T06:41:05.365Z,13.30
2022-10-13T06:43:38.891Z,8.97
2022-10-13T06:46:09.396Z,11.13
2022-10-13T06:48:35.872Z,12.37
2022-10-13T06:51:03.460Z,12.17
2022-10-13T06:53:30.175Z,11.37
2022-10-13T06:55:57.422Z,17.13
2022-10-13T06:58:23.905Z,13.27
2022-10-13T07:00:50.370Z,12.17
2022-10-13T07:03:16.842Z,12.10
2022-10-13T07:05:43.284Z,18.57
2022-10-13T07:08:09.704Z,14.67
2022-10-13T07:10:37.520Z,10.83
2022-10-13T07:13:04.023Z,8.53
2022-10-13T07:15:30.612Z,13.97
2022-10-13T07:17:57.043Z,9.57
2022-10-13T07:20:23.939Z,10.27
2022-10-13T07:22:53.497Z,8.77
2022-10-13T07:25:20.428Z,9.50
2022-10-13T07:27:46.899Z,13.30
2022-10-13T07:30:13.402Z,9.27
2022-10-13T07:32:42.021Z,13.90
2022-10-13T07:35:10.480Z,11.20
2022-10-13T07:37:37.335Z,11.10
2022-10-13T07:40:04.444Z,12.50
2022-10-13T07:42:31.749Z,13.77
2022-10-13T07:44:58.389Z,11.17
2022-10-13T07:47:28.585Z,10.50
2022-10-13T07:49:55.762Z,9.73
2022-10-13T07:52:22.950Z,11.57
2022-10-13T07:54:50.057Z,10.53
2022-10-13T07:57:16.569Z,10.13
2022-10-13T07:59:43.019Z,13.13
2022-10-13T08:02:12.722Z,13.23
2022-10-13T08:04:39.238Z,14.00
2022-10-13T08:07:06.115Z,11.53
2022-10-13T08:09:33.072Z,12.17
2022-10-13T08:12:00.807Z,11.23
2022-10-13T08:14:29.031Z,11.70
2022-10-13T08:16:55.861Z,14.57
2022-10-13T08:19:22.298Z,9.77
2022-10-13T08:22:09.089Z,14.23
2022-10-13T08:24:35.852Z,13.93
2022-10-13T08:27:02.362Z,9.33
2022-10-13T08:29:28.908Z,18.37
2022-10-13T08:31:55.535Z,11.37
2022-10-13T08:34:25.395Z,13.27
2022-10-13T08:36:53.391Z,10.37
2022-10-13T08:39:21.028Z,13.27
2022-10-13T08:41:47.625Z,13.98
2022-10-13T08:47:31.845Z,11.07
2022-10-13T08:50:02.428Z,15.63
2022-10-13T08:52:30.104Z,12.77
2022-10-13T08:54:57.182Z,9.60
2022-10-13T08:57:24.269Z,9.40
2022-10-13T08:59:52.190Z,9.30
2022-10-13T09:02:29.308Z,11.48
2022-10-13T09:04:57.283Z,12.67
2022-10-13T09:07:28.326Z,12.97
2022-10-13T09:09:55.932Z,11.00
2022-10-13T09:12:25.087Z,10.10
2022-10-13T09:14:59.779Z,13.67
2022-10-13T09:17:26.955Z,11.83
2022-10-13T09:19:59.522Z,14.70
2022-10-13T09:22:27.640Z,10.77
2022-10-13T09:25:12.314Z,15.37
2022-10-13T09:27:52.724Z,11.87
2022-10-13T09:30:25.807Z,10.87
2022-10-13T09:33:14.112Z,17.03
2022-10-13T09:35:44.100Z,13.90
2022-10-13T09:38:10.493Z,17.20
2022-10-13T09:40:37.245Z,12.50
2022-10-13T09:43:06.364Z,19.00
2022-10-13T09:45:32.797Z,15.67
2022-10-13T09:48:02.059Z,18.20
2022-10-13T09:50:32.828Z,13.73
2022-10-13T09:53:17.832Z,14.30
2022-10-13T09:55:48.560Z,15.73
2022-10-13T09:58:24.924Z,13.07
2022-10-13T10:00:51.669Z,16.43
2022-10-13T10:03:27.382Z,15.33
2022-10-13T10:06:00.182Z,14.40
2022-10-13T10:09:01.593Z,19.63
2022-10-13T10:11:28.656Z,11.63
2022-10-13T10:13:55.997Z,11.50
2022-10-13T10:16:30.305Z,10.90
2022-10-13T10:19:19.721Z,12.50
2022-10-13T10:21:46.343Z,10.67
2022-10-13T10:24:24.681Z,12.80
2022-10-13T10:27:00.199Z,12.80
2022-10-13T10:29:37.227Z,10.70
2022-10-13T10:32:21.530Z,11.90
2022-10-13T10:34:53.662Z,12.37
2022-10-13T10:37:25.159Z,12.20
2022-10-13T10:40:10.955Z,11.13
2022-10-13T10:43:12.439Z,12.47
2022-10-13T10:45:39.480Z,14.90
2022-10-13T10:48:23.456Z,12.67
2022-10-13T10:50:51.274Z,17.23
2022-10-13T10:53:41.079Z,11.37
2022-10-13T10:56:26.906Z,43.30
2022-10-13T10:58:58.624Z,14.20
2022-10-13T11:01:29.696Z,12.57
2022-10-13T11:04:22.627Z,10.37
2022-10-13T11:06:49.062Z,10.33
2022-10-13T11:09:35.554Z,12.23
2022-10-13T11:12:02.049Z,14.20
2022-10-13T11:14:29.969Z,9.80
2022-10-13T11:17:05.375Z,11.93
2022-10-13T11:19:39.037Z,8.40
2022-10-13T11:22:05.742Z,12.37
2022-10-13T11:24:36.627Z,10.93
2022-10-13T11:27:10.615Z,10.23
2022-10-13T11:29:46.677Z,9.50
2022-10-13T11:32:25.785Z,9.17
2022-10-13T11:35:04.633Z,8.47
2022-10-13T11:37:48.306Z,9.60
2022-10-13T11:40:32.482Z,10.37
2022-10-13T11:43:17.777Z,8.27
2022-10-13T11:45:47.231Z,16.30
2022-10-13T11:48:33.472Z,9.87
2022-10-13T11:50:59.863Z,11.70
2022-10-13T11:53:28.027Z,9.40
2022-10-13T11:55:55.780Z,9.50
2022-10-13T11:58:26.638Z,7.97
2022-10-13T12:00:54.764Z,9.40
2022-10-13T12:03:22.740Z,9.73
2022-10-13T12:05:50.115Z,8.53
2022-10-13T12:08:18.161Z,8.50
2022-10-13T12:10:44.688Z,9.73
2022-10-13T12:13:30.341Z,9.40
2022-10-13T12:16:06.619Z,12.13
2022-10-13T12:18:34.776Z,9.13
2022-10-13T12:21:03.245Z,12.23
2022-10-13T12:23:31.597Z,8.30
2022-10-13T12:25:58.862Z,12.03
2022-10-13T12:28:29.819Z,8.93
2022-10-13T12:31:00.046Z,10.40
2022-10-13T12:33:30.912Z,8.73
2022-10-13T12:36:12.007Z,10.57
2022-10-13T12:38:38.914Z,8.93
2022-10-13T12:41:05.604Z,8.37
2022-10-13T12:43:32.085Z,8.73
2022-10-13T12:45:58.648Z,14.37
2022-10-13T12:48:35.279Z,9.10
2022-10-13T12:51:26.713Z,8.07
2022-10-13T12:53:53.370Z,8.03
2022-10-13T12:56:26.329Z,7.30
2022-10-13T12:58:52.894Z,7.27
2022-10-13T13:01:27.385Z,6.57
2022-10-13T13:03:58.353Z,10.70
2022-10-13T13:06:32.200Z,7.87
2022-10-13T13:09:07.562Z,8.67
2022-10-13T13:11:35.515Z,12.03
2022-10-13T13:14:22.679Z,9.67
2022-10-13T13:17:07.889Z,9.97
2022-10-13T13:19:35.261Z,11.03
2022-10-13T13:22:03.850Z,7.60
2022-10-13T13:24:39.703Z,7.87
2022-10-13T13:27:21.720Z,8.30
2022-10-13T13:29:48.451Z,7.70
2022-10-13T13:32:17.404Z,8.93
2022-10-13T13:34:49.543Z,7.43
2022-10-13T13:37:22.147Z,13.30
2022-10-13T13:39:49.843Z,11.33
2022-10-13T13:42:16.477Z,12.83
2022-10-13T13:44:43.055Z,7.23
2022-10-13T13:47:15.913Z,8.27
2022-10-13T13:49:45.773Z,8.87
2022-10-13T13:52:12.338Z,10.47
2022-10-13T13:54:38.818Z,8.47
2022-10-13T13:57:05.327Z,7.77
2022-10-13T13:59:32.228Z,7.77
2022-10-13T14:01:58.737Z,12.00
2022-10-13T14:04:26.086Z,7.77
2022-10-13T14:06:52.988Z,8.07
2022-10-13T14:09:19.536Z,7.53
2022-10-13T14:11:46.033Z,8.70
2022-10-13T14:14:12.515Z,7.20
2022-10-13T14:16:39.113Z,8.57
2022-10-13T14:19:05.552Z,7.27
2022-10-13T14:21:32.065Z,8.30
2022-10-13T14:24:00.672Z,7.40
2022-10-13T14:26:27.103Z,10.80
2022-10-13T14:28:53.566Z,9.93
2022-10-13T14:31:19.995Z,8.73
2022-10-13T14:33:48.729Z,8.93
2022-10-13T14:36:18.485Z,7.13
2022-10-13T14:38:44.989Z,8.37
2022-10-13T14:41:11.762Z,9.20
2022-10-13T14:43:38.174Z,9.17
2022-10-13T14:46:05.654Z,9.70
2022-10-13T14:48:35.480Z,12.47
2022-10-13T14:51:08.610Z,10.50
2022-10-13T14:53:35.986Z,8.23
2022-10-13T14:56:02.774Z,9.47
2022-10-13T14:58:30.572Z,7.73
2022-10-13T15:00:57.078Z,8.83
2022-10-13T15:03:24.028Z,8.33
2022-10-13T15:05:50.553Z,8.60
2022-10-13T15:08:17.331Z,8.83
2022-10-13T15:10:45.180Z,11.73
2022-10-13T15:13:11.837Z,8.67
2022-10-13T15:15:45.496Z,8.00
2022-10-13T15:18:11.932Z,8.27
2022-10-13T15:20:39.760Z,9.37
2022-10-13T15:23:06.666Z,7.77
2022-10-13T15:25:33.108Z,8.97
2022-10-13T15:27:59.590Z,8.07
2022-10-13T15:30:26.060Z,8.53
2022-10-13T15:32:53.031Z,8.10
2022-10-13T15:35:19.520Z,8.20
2022-10-13T15:37:45.922Z,8.13
2022-10-13T15:40:12.588Z,8.77
2022-10-13T15:42:38.998Z,8.90
2022-10-13T15:45:10.383Z,7.77
2022-10-13T15:47:37.904Z,9.30
2022-10-13T15:50:04.506Z,9.03
2022-10-13T15:52:34.707Z,8.80
2022-10-13T15:55:01.831Z,12.13
2022-10-13T15:57:28.562Z,13.53
2022-10-13T15:59:55.095Z,11.13
2022-10-13T16:02:23.350Z,9.07
2022-10-13T16:04:50.237Z,15.03
2022-10-13T16:07:18.402Z,9.77
2022-10-13T16:09:45.195Z,10.90
2022-10-13T16:12:11.639Z,9.73
2022-10-13T16:14:38.066Z,10.63
2022-10-13T16:17:04.528Z,13.03
2022-10-13T16:19:31.009Z,11.43
2022-10-13T16:21:57.490Z,15.10
2022-10-13T16:24:23.970Z,9.53
2022-10-13T16:26:50.433Z,10.43
2022-10-13T16:29:16.919Z,9.60
2022-10-13T16:31:43.464Z,12.77
2022-10-13T16:34:10.442Z,11.77
2022-10-13T16:36:36.869Z,14.37
2022-10-13T16:39:03.520Z,9.93
2022-10-13T16:41:30.009Z,11.00
2022-10-13T16:43:56.504Z,10.57
2022-10-13T16:46:23.159Z,10.17
2022-10-13T16:48:49.701Z,9.13
2022-10-13T16:51:20.494Z,8.93
2022-10-13T16:53:47.954Z,9.97
2022-10-13T16:56:14.405Z,9.30
2022-10-13T16:58:45.269Z,9.50
2022-10-13T17:01:12.309Z,8.50
2022-10-13T17:03:39.431Z,10.00
2022-10-13T17:06:06.094Z,9.77
2022-10-13T17:08:32.692Z,10.27
2022-10-13T17:11:00.724Z,9.90
2022-10-13T17:13:27.334Z,13.10
2022-10-13T17:15:54.725Z,12.17
2022-10-13T17:18:21.641Z,13.93
2022-10-13T17:20:52.101Z,9.83
2022-10-13T17:23:18.558Z,12.83
2022-10-13T17:25:44.995Z,12.70
2022-10-13T17:28:11.484Z,13.87
2022-10-13T17:30:38.042Z,10.33
2022-10-13T17:33:04.744Z,12.63
2022-10-13T17:35:31.555Z,10.43
2022-10-13T17:37:58.832Z,10.67
2022-10-13T17:40:25.268Z,10.60
2022-10-13T17:42:51.734Z,12.17
2022-10-13T17:45:18.761Z,11.03
2022-10-13T17:47:51.752Z,12.30
2022-10-13T17:50:19.563Z,13.13
2022-10-13T17:52:46.100Z,10.37
2022-10-13T17:55:12.604Z,11.43
2022-10-13T17:57:39.081Z,10.63
2022-10-13T18:00:06.992Z,12.07
2022-10-13T18:02:38.806Z,11.17
2022-10-13T18:05:05.336Z,11.30
2022-10-13T18:07:31.896Z,12.37
2022-10-13T18:09:58.361Z,12.43
2022-10-13T18:12:24.802Z,10.63
2022-10-13T18:14:51.390Z,13.63
2022-10-13T18:17:17.995Z,11.80
2022-10-13T18:19:44.733Z,11.77
2022-10-13T18:22:11.743Z,12.60
2022-10-13T18:24:38.572Z,13.10
2022-10-13T18:27:05.071Z,15.70
2022-10-13T18:29:35.173Z,14.43
2022-10-13T18:32:01.717Z,17.07
2022-10-13T18:34:28.220Z,13.37
2022-10-13T18:36:55.903Z,14.47
2022-10-13T18:39:26.569Z,15.43
2022-10-13T18:41:53.890Z,12.37
2022-10-13T18:44:20.969Z,12.43
2022-10-13T18:46:50.928Z,11.97
2022-10-13T18:49:23.243Z,15.07
2022-10-13T18:51:50.763Z,14.80
2022-10-13T18:54:17.368Z,12.27
2022-10-13T18:56:43.856Z,22.20
2022-10-13T18:59:10.360Z,18.73
2022-10-13T19:01:37.994Z,18.43
2022-10-13T19:04:04.930Z,16.43
2022-10-13T19:06:32.514Z,23.10
2022-10-13T19:09:00.793Z,18.27
2022-10-13T19:11:28.376Z,19.47
2022-10-13T19:13:54.990Z,19.10
2022-10-13T19:16:23.160Z,18.23
2022-10-13T19:18:50.154Z,22.73
2022-10-13T19:21:17.042Z,16.93
2022-10-13T19:23:43.881Z,19.67
2022-10-13T19:26:23.886Z,24.97
2022-10-13T19:29:10.121Z,15.97
2022-10-13T19:31:38.087Z,19.27
2022-10-13T19:34:06.899Z,17.70
2022-10-13T19:36:35.234Z,17.07
2022-10-13T19:39:02.973Z,18.33
2022-10-13T19:41:31.365Z,17.90
2022-10-13T19:43:58.187Z,13.80
2022-10-13T19:46:34.474Z,18.50
2022-10-13T19:49:01.032Z,12.97
2022-10-13T19:51:27.465Z,19.40
2022-10-13T19:53:53.932Z,17.60
2022-10-13T19:56:24.967Z,14.37
2022-10-13T19:58:52.053Z,13.20
2022-10-13T20:01:19.924Z,19.30
2022-10-13T20:03:46.903Z,13.90
2022-10-13T20:06:13.748Z,17.10
2022-10-13T20:08:40.166Z,16.30
2022-10-13T20:11:08.058Z,13.00
2022-10-13T20:13:34.531Z,16.73
2022-10-13T20:16:05.196Z,13.90
2022-10-13T20:18:31.609Z,14.57
2022-10-13T20:21:01.190Z,14.57
2022-10-13T20:23:27.632Z,13.00
2022-10-13T20:25:54.213Z,13.30
2022-10-13T20:28:20.626Z,14.97
2022-10-13T20:30:47.085Z,13.70
2022-10-13T20:33:13.495Z,17.00
2022-10-13T20:35:39.928Z,16.87
2022-10-13T20:38:06.348Z,14.77
2022-10-13T20:40:32.766Z,13.40
2022-10-13T20:42:59.276Z,16.40
2022-10-13T20:45:25.818Z,13.80
2022-10-13T20:47:52.231Z,14.73
2022-10-13T20:50:18.679Z,17.60
2022-10-13T20:52:45.156Z,13.83
2022-10-13T20:55:11.633Z,16.53
2022-10-13T20:57:38.094Z,14.47
2022-10-13T21:00:05.623Z,14.70
2022-10-13T21:02:32.122Z,18.03
2022-10-13T21:04:58.517Z,16.83
2022-10-13T21:07:24.920Z,18.83
2022-10-13T21:09:53.860Z,16.60
2022-10-13T21:12:20.884Z,18.90
2022-10-13T21:14:47.316Z,17.40
2022-10-13T21:17:13.741Z,18.33
2022-10-13T21:19:40.196Z,22.63
2022-10-13T21:22:06.781Z,21.20
2022-10-13T21:24:33.577Z,19.70
2022-10-13T21:27:00.020Z,21.43
2022-10-13T21:29:26.545Z,18.70
2022-10-13T21:31:53.082Z,17.87
2022-10-13T21:34:19.627Z,23.43
2022-10-13T21:36:46.108Z,18.03
2022-10-13T21:39:13.069Z,18.10
2022-10-13T21:41:39.535Z,19.93
2022-10-13T21:44:06.332Z,17.10
2022-10-13T21:46:34.592Z,20.37
2022-10-13T21:49:02.105Z,22.20
2022-10-13T21:51:29.934Z,17.90
2022-10-13T21:53:57.376Z,17.47
2022-10-13T21:56:25.577Z,17.33
2022-10-13T21:58:52.286Z,18.73
2022-10-13T22:01:19.544Z,17.77
2022-10-13T22:03:47.199Z,19.87
2022-10-13T22:06:18.968Z,17.83
2022-10-13T22:08:46.254Z,20.67
2022-10-13T22:11:13.864Z,16.53
2022-10-13T22:13:40.763Z,16.77
2022-10-13T22:16:09.711Z,21.33
2022-10-13T22:18:40.799Z,17.47
2022-10-13T22:21:08.189Z,20.63
2022-10-13T22:23:34.919Z,20.90
2022-10-13T22:26:01.394Z,18.07
2022-10-13T22:28:27.945Z,18.87
2022-10-13T22:30:54.705Z,17.37
2022-10-13T22:33:21.235Z,20.33
2022-10-13T22:35:52.815Z,19.23
2022-10-13T22:38:21.392Z,24.10
2022-10-13T22:40:47.810Z,20.77
2022-10-13T22:43:14.314Z,19.93
2022-10-13T22:45:49.003Z,18.43
2022-10-13T22:48:15.412Z,24.07
2022-10-13T22:50:41.898Z,20.20
2022-10-13T22:53:08.329Z,18.13
2022-10-13T22:55:34.771Z,21.37
2022-10-13T22:58:01.220Z,19.10
2022-10-13T23:00:27.898Z,19.13
2022-10-13T23:02:54.316Z,18.50
2022-10-13T23:05:20.791Z,19.97
2022-10-13T23:07:47.250Z,19.43
2022-10-13T23:10:13.727Z,22.27
2022-10-13T23:12:41.876Z,19.07
2022-10-13T23:15:08.741Z,19.93
2022-10-13T23:17:35.350Z,25.40
2022-10-13T23:20:01.849Z,18.63
2022-10-13T23:22:28.274Z,17.37
2022-10-13T23:24:55.932Z,17.97
2022-10-13T23:27:22.776Z,16.50
2022-10-13T23:29:49.942Z,21.60
2022-10-13T23:32:16.367Z,17.57
2022-10-13T23:34:42.783Z,17.10
2022-10-13T23:37:09.815Z,17.23
2022-10-13T23:39:36.345Z,17.87
2022-10-13T23:42:02.827Z,20.70
2022-10-13T23:44:30.004Z,20.20
2022-10-13T23:46:56.742Z,19.60
2022-10-13T23:49:23.210Z,21.23
2022-10-13T23:51:49.685Z,22.63
2022-10-13T23:54:16.134Z,18.90
2022-10-13T23:56:42.537Z,16.13
2022-10-13T23:59:09.026Z,17.83
